createdAt,value
2019-03-04T00:02:04.724Z,11.31
2019-03-04T00:07:23.300Z,11.35
2019-03-04T00:12:41.901Z,11.38
2019-03-04T00:18:00.523Z,11.25
2019-03-04T00:23:19.064Z,11.21
2019-03-04T00:28:37.622Z,11.24
2019-03-04T00:33:56.411Z,11.37
2019-03-04T00:39:15.036Z,11.28
2019-03-04T00:44:33.670Z,10.98
2019-03-04T00:49:52.212Z,10.78
2019-03-04T00:55:11.843Z,10.53
2019-03-04T01:00:30.402Z,10.48
2019-03-04T01:05:50.400Z,10.49
2019-03-04T01:11:09.072Z,10.67
2019-03-04T01:16:27.690Z,10.73
2019-03-04T01:21:46.336Z,11.02
2019-03-04T01:27:05.341Z,11.16
2019-03-04T01:32:24.088Z,11.20
2019-03-04T01:37:42.705Z,11.37
2019-03-04T01:43:01.328Z,11.37
2019-03-04T01:48:28.556Z,11.50
2019-03-04T01:53:47.186Z,11.39
2019-03-04T01:59:05.734Z,11.33
2019-03-04T02:04:24.289Z,11.43
2019-03-04T02:09:42.828Z,11.22
2019-03-04T02:15:01.456Z,11.25
2019-03-04T02:20:20.085Z,11.27
2019-03-04T02:25:44.950Z,11.22
2019-03-04T02:31:03.615Z,11.21
2019-03-04T02:36:22.093Z,11.12
2019-03-04T02:41:40.791Z,10.94
2019-03-04T02:46:59.488Z,11.14
2019-03-04T02:52:18.101Z,11.19
2019-03-04T02:57:36.726Z,11.14
2019-03-04T03:02:55.270Z,11.00
2019-03-04T03:08:13.822Z,11.09
2019-03-04T03:13:32.446Z,11.02
2019-03-04T03:18:51.007Z,10.97
2019-03-04T03:24:09.553Z,11.10
2019-03-04T03:29:28.203Z,11.03
2019-03-04T03:34:46.647Z,11.24
2019-03-04T03:40:11.056Z,11.17
2019-03-04T03:45:29.678Z,11.18
2019-03-04T03:50:48.308Z,11.45
2019-03-04T03:56:06.927Z,11.65
2019-03-04T04:01:25.534Z,11.81
2019-03-04T04:06:44.193Z,11.75
2019-03-04T04:12:02.865Z,11.75
2019-03-04T04:17:21.477Z,11.76
2019-03-04T04:22:40.095Z,11.65
2019-03-04T04:27:58.711Z,11.54
2019-03-04T04:33:17.254Z,11.59
2019-03-04T04:38:35.811Z,11.61
2019-03-04T04:43:54.570Z,11.65
2019-03-04T04:49:13.182Z,11.73
2019-03-04T04:54:31.795Z,11.74
2019-03-04T04:59:50.278Z,11.85
2019-03-04T05:05:08.961Z,11.84
2019-03-04T05:10:27.604Z,11.76
2019-03-04T05:15:46.148Z,11.74
2019-03-04T05:21:04.635Z,11.72
2019-03-04T05:26:23.182Z,11.73
2019-03-04T05:31:41.788Z,11.71
2019-03-04T05:37:00.352Z,11.69
2019-03-04T05:42:19.181Z,11.63
2019-03-04T05:47:37.809Z,11.64
2019-03-04T05:52:56.415Z,11.65
2019-03-04T05:58:15.103Z,11.65
2019-03-04T06:03:33.722Z,11.52
2019-03-04T06:08:52.360Z,11.50
2019-03-04T06:14:11.062Z,11.48
2019-03-04T06:19:29.650Z,11.48
2019-03-04T06:24:48.156Z,6.93
2019-03-04T06:30:15.283Z,6.21
2019-03-04T06:35:33.905Z,6.25
2019-03-04T06:40:52.694Z,6.19
2019-03-04T06:46:12.513Z,6.05
2019-03-04T06:51:34.175Z,6.07
2019-03-04T06:56:55.876Z,6.08
2019-03-04T07:02:32.491Z,6.08
2019-03-04T07:07:51.105Z,6.29
2019-03-04T07:13:09.766Z,6.55
2019-03-04T07:18:28.381Z,6.62
2019-03-04T07:23:46.997Z,6.79
2019-03-04T07:29:05.649Z,7.12
2019-03-04T07:34:24.190Z,7.25
2019-03-04T07:39:42.726Z,7.40
2019-03-04T07:45:01.498Z,7.68
2019-03-04T07:50:20.099Z,7.77
2019-03-04T07:55:38.729Z,8.10
2019-03-04T08:00:57.488Z,8.24
2019-03-04T08:06:16.109Z,8.30
2019-03-04T08:11:46.497Z,8.45
2019-03-04T08:17:05.109Z,8.52
2019-03-04T08:22:23.745Z,8.69
2019-03-04T08:27:42.350Z,8.77
2019-03-04T08:33:01.102Z,8.75
2019-03-04T08:38:19.711Z,8.83
2019-03-04T08:43:38.316Z,8.84
2019-03-04T08:48:56.873Z,9.01
2019-03-04T08:54:15.416Z,9.13
2019-03-04T08:59:33.979Z,9.56
2019-03-04T09:04:52.495Z,9.39
2019-03-04T09:10:19.819Z,9.54
2019-03-04T09:15:38.555Z,9.54
2019-03-04T09:20:57.447Z,9.31
2019-03-04T09:26:16.092Z,9.28
2019-03-04T09:31:34.765Z,9.41
2019-03-04T09:36:53.292Z,9.28
2019-03-04T09:42:13.406Z,9.40
2019-03-04T09:47:32.087Z,9.18
2019-03-04T09:52:50.652Z,9.10
2019-03-04T09:58:09.288Z,8.89
2019-03-04T10:03:42.803Z,8.93
2019-03-04T10:09:19.590Z,9.01
2019-03-04T10:14:46.847Z,9.05
2019-03-04T10:20:27.150Z,9.04
2019-03-04T10:25:57.538Z,9.22
2019-03-04T10:31:48.165Z,9.27
2019-03-04T10:37:22.075Z,8.79
2019-03-04T10:43:14.006Z,8.79
2019-03-04T10:48:32.486Z,8.93
2019-03-04T10:53:50.950Z,8.84
2019-03-04T10:59:09.492Z,8.77
2019-03-04T11:04:28.107Z,8.75
2019-03-04T11:09:46.675Z,8.94
2019-03-04T11:15:08.139Z,9.08
2019-03-04T11:20:26.681Z,9.26
2019-03-04T11:25:45.505Z,8.77
2019-03-04T11:31:04.196Z,6.44
2019-03-04T11:36:22.806Z,5.68
2019-03-04T11:41:41.415Z,5.60
2019-03-04T11:47:00.030Z,5.48
2019-03-04T11:52:18.671Z,5.24
2019-03-04T11:57:37.185Z,5.41
2019-03-04T12:02:55.882Z,5.61
2019-03-04T12:08:14.505Z,5.49
2019-03-04T12:13:33.103Z,5.72
2019-03-04T12:18:51.725Z,6.45
2019-03-04T12:24:10.352Z,6.39
2019-03-04T12:29:28.948Z,6.25
2019-03-04T12:34:47.661Z,6.31
2019-03-04T12:40:09.613Z,6.25
2019-03-04T12:45:34.388Z,6.52
2019-03-04T12:50:48.631Z,6.44
2019-03-04T12:56:07.264Z,6.19
2019-03-04T13:01:27.911Z,6.14
2019-03-04T13:06:46.533Z,6.42
2019-03-04T13:12:06.014Z,6.54
2019-03-04T13:17:24.643Z,6.38
2019-03-04T13:22:43.287Z,6.66
2019-03-04T13:28:08.173Z,6.71
2019-03-04T13:33:23.322Z,6.48
2019-03-04T13:38:43.446Z,6.26
2019-03-04T13:44:01.989Z,6.42
2019-03-04T13:49:20.602Z,6.78
2019-03-04T13:54:39.212Z,7.25
2019-03-04T13:59:57.675Z,7.43
2019-03-04T14:05:18.622Z,7.39
2019-03-04T14:10:39.561Z,7.50
2019-03-04T14:15:58.713Z,7.88
2019-03-04T14:21:17.320Z,8.72
2019-03-04T14:26:35.925Z,8.31
2019-03-04T14:31:54.547Z,7.97
2019-03-04T14:37:13.095Z,7.64
2019-03-04T14:42:31.654Z,7.56
2019-03-04T14:47:50.198Z,7.65
2019-03-04T14:53:08.810Z,8.33
2019-03-04T14:58:27.435Z,8.03
2019-03-04T15:03:45.992Z,7.81
2019-03-04T15:09:08.079Z,7.71
2019-03-04T15:14:26.613Z,7.75
2019-03-04T15:19:45.147Z,7.90
2019-03-04T15:25:04.785Z,7.94
2019-03-04T15:30:23.397Z,7.87
2019-03-04T15:35:42.210Z,7.92
2019-03-04T15:41:00.775Z,7.89
2019-03-04T15:46:19.469Z,7.93
2019-03-04T15:51:38.108Z,7.87
2019-03-04T15:56:59.667Z,7.84
2019-03-04T16:02:21.393Z,7.86
2019-03-04T16:07:40.033Z,7.90
2019-03-04T16:12:58.645Z,7.79
2019-03-04T16:18:17.249Z,7.78
2019-03-04T16:23:35.800Z,7.72
2019-03-04T16:28:54.401Z,7.71
2019-03-04T16:34:13.053Z,7.58
2019-03-04T16:39:31.679Z,7.51
2019-03-04T16:44:50.150Z,7.37
2019-03-04T16:50:14.137Z,7.17
2019-03-04T16:55:32.738Z,7.10
2019-03-04T17:00:52.019Z,6.93
2019-03-04T17:06:10.657Z,6.82
2019-03-04T17:11:29.193Z,6.80
2019-03-04T17:16:50.594Z,6.66
2019-03-04T17:22:09.207Z,6.51
2019-03-04T17:27:27.823Z,6.47
2019-03-04T17:32:48.075Z,6.36
2019-03-04T17:38:06.769Z,6.22
2019-03-04T17:43:25.335Z,6.09
2019-03-04T17:48:43.891Z,6.04
2019-03-04T17:54:02.510Z,5.92
2019-03-04T17:59:21.076Z,5.91
2019-03-04T18:04:39.690Z,5.79
2019-03-04T18:09:58.301Z,6.05
2019-03-04T18:15:28.086Z,6.05
2019-03-04T18:20:46.688Z,6.13
2019-03-04T18:26:11.338Z,5.99
2019-03-04T18:31:44.858Z,5.93
2019-03-04T18:37:06.549Z,5.92
2019-03-04T18:42:44.579Z,5.85
2019-03-04T18:48:30.520Z,5.94
2019-03-04T18:53:49.238Z,5.82
2019-03-04T18:59:08.617Z,5.77
2019-03-04T19:04:27.234Z,5.66
2019-03-04T19:09:45.849Z,5.68
2019-03-04T19:15:06.562Z,5.75
2019-03-04T19:20:25.099Z,5.80
2019-03-04T19:25:43.723Z,5.85
2019-03-04T19:31:02.263Z,5.90
2019-03-04T19:36:20.980Z,5.78
2019-03-04T19:41:40.467Z,5.78
2019-03-04T19:46:59.122Z,5.79
2019-03-04T19:52:17.935Z,5.82
2019-03-04T19:57:36.532Z,5.77
2019-03-04T20:02:55.443Z,5.69
2019-03-04T20:08:17.599Z,5.66
2019-03-04T20:13:36.414Z,5.48
2019-03-04T20:18:56.239Z,5.38
2019-03-04T20:24:17.657Z,5.46
2019-03-04T20:29:36.317Z,5.55
2019-03-04T20:34:56.377Z,5.60
2019-03-04T20:40:15.111Z,5.73
2019-03-04T20:45:36.110Z,5.74
2019-03-04T20:50:54.750Z,6.02
2019-03-04T20:56:13.377Z,6.09
2019-03-04T21:01:32.098Z,6.10
2019-03-04T21:06:50.721Z,6.11
2019-03-04T21:12:09.259Z,6.11
2019-03-04T21:17:27.883Z,6.13
2019-03-04T21:22:47.366Z,6.21
2019-03-04T21:28:20.200Z,6.11
2019-03-04T21:33:59.780Z,5.41
2019-03-04T21:39:37.162Z,4.54
2019-03-04T21:45:01.358Z,4.40
2019-03-04T21:50:53.020Z,4.37
2019-03-04T21:56:14.581Z,4.32
2019-03-04T22:01:39.121Z,4.35
2019-03-04T22:06:57.654Z,4.33
2019-03-04T22:12:16.376Z,4.37
2019-03-04T22:17:35.011Z,4.47
2019-03-04T22:22:53.626Z,4.55
2019-03-04T22:28:16.666Z,4.65
2019-03-04T22:33:35.170Z,4.79
2019-03-04T22:38:53.739Z,4.93
2019-03-04T22:44:12.479Z,5.07
2019-03-04T22:49:31.063Z,5.13
2019-03-04T22:54:49.667Z,5.16
2019-03-04T23:00:43.253Z,5.18
2019-03-04T23:06:10.271Z,5.23
2019-03-04T23:11:31.591Z,5.26
2019-03-04T23:16:50.144Z,5.33
2019-03-04T23:22:08.777Z,5.46
2019-03-04T23:27:27.407Z,5.50
2019-03-04T23:32:45.963Z,5.57
2019-03-04T23:38:04.564Z,5.66
2019-03-04T23:43:23.206Z,5.69
2019-03-04T23:48:41.764Z,5.68
2019-03-04T23:54:00.380Z,5.72
2019-03-04T23:59:19.134Z,5.75
